createdAt,value
2023-03-29T00:01:00.857Z,100727.30
2023-03-29T00:03:31.051Z,100726.09
2023-03-29T00:06:04.319Z,100726.66
2023-03-29T00:08:38.370Z,100727.98
2023-03-29T00:11:06.368Z,100725.93
2023-03-29T00:13:34.956Z,100726.91
2023-03-29T00:16:02.985Z,100724.88
2023-03-29T00:18:30.966Z,100724.83
2023-03-29T00:21:00.775Z,100728.02
2023-03-29T00:23:29.145Z,100726.64
2023-03-29T00:25:57.760Z,100728.49
2023-03-29T00:28:26.003Z,100721.55
2023-03-29T00:31:03.897Z,100727.77
2023-03-29T00:33:32.384Z,100727.18
2023-03-29T00:36:00.409Z,100726.29
2023-03-29T00:38:28.760Z,100727.98
2023-03-29T00:40:56.737Z,100727.00
2023-03-29T00:43:25.696Z,100729.84
2023-03-29T00:45:54.515Z,100725.98
2023-03-29T00:48:27.365Z,100728.17
2023-03-29T00:51:08.170Z,100729.01
2023-03-29T00:53:43.654Z,100727.78
2023-03-29T00:56:27.834Z,100728.02
2023-03-29T00:59:18.863Z,100724.90
2023-03-29T01:01:58.814Z,100727.89
2023-03-29T01:04:42.833Z,100727.98
2023-03-29T01:07:14.324Z,100730.01
2023-03-29T01:09:46.135Z,100724.88
2023-03-29T01:12:22.601Z,100727.55
2023-03-29T01:15:04.530Z,100728.73
2023-03-29T01:17:33.371Z,100731.21
2023-03-29T01:20:23.708Z,100730.02
2023-03-29T01:23:17.257Z,100730.42
2023-03-29T01:25:59.369Z,100726.90
2023-03-29T01:28:37.285Z,100730.85
2023-03-29T01:31:09.387Z,100729.10
2023-03-29T01:33:52.898Z,100730.24
2023-03-29T01:36:37.418Z,100730.70
2023-03-29T01:39:07.509Z,100732.52
2023-03-29T01:41:48.404Z,100733.89
2023-03-29T01:44:56.576Z,100729.83
2023-03-29T01:47:27.974Z,100731.77
2023-03-29T01:50:14.669Z,100735.01
2023-03-29T01:53:04.391Z,100731.96
2023-03-29T01:55:36.149Z,100733.80
2023-03-29T01:58:08.561Z,100734.80
2023-03-29T02:00:38.596Z,100732.85
2023-03-29T02:03:09.244Z,100733.77
2023-03-29T02:05:39.865Z,100730.24
2023-03-29T02:08:10.948Z,100730.61
2023-03-29T02:10:39.505Z,100730.73
2023-03-29T02:13:07.556Z,100733.44
2023-03-29T02:15:35.598Z,100736.98
2023-03-29T02:18:06.842Z,100735.72
2023-03-29T02:20:43.337Z,100737.33
2023-03-29T02:23:18.853Z,100739.45
2023-03-29T02:25:50.508Z,100741.94
2023-03-29T02:28:18.624Z,100739.77
2023-03-29T02:30:53.718Z,100740.11
2023-03-29T02:33:42.262Z,100741.52
2023-03-29T02:36:17.990Z,100740.02
2023-03-29T02:38:46.537Z,100740.92
2023-03-29T02:41:16.997Z,100738.77
2023-03-29T02:43:47.810Z,100736.61
2023-03-29T02:46:18.389Z,100737.02
2023-03-29T02:48:49.697Z,100737.29
2023-03-29T02:51:26.791Z,100738.95
2023-03-29T02:54:10.896Z,100742.63
2023-03-29T02:56:43.696Z,100742.95
2023-03-29T02:59:12.889Z,100743.23
2023-03-29T03:01:45.414Z,100748.42
2023-03-29T03:04:15.156Z,100747.39
2023-03-29T03:06:43.236Z,100750.83
2023-03-29T03:09:11.919Z,100754.93
2023-03-29T03:11:42.416Z,100753.02
2023-03-29T03:14:11.139Z,100753.84
2023-03-29T03:16:39.298Z,100754.14
2023-03-29T03:19:07.711Z,100757.21
2023-03-29T03:21:37.865Z,100758.02
2023-03-29T03:24:07.775Z,100759.37
2023-03-29T03:26:38.320Z,100760.85
2023-03-29T03:29:06.744Z,100760.15
2023-03-29T03:32:04.485Z,100763.95
2023-03-29T03:34:59.288Z,100762.94
2023-03-29T03:37:28.096Z,100766.15
2023-03-29T03:39:56.782Z,100762.51
2023-03-29T03:42:28.833Z,100763.77
2023-03-29T03:44:57.610Z,100760.92
2023-03-29T03:47:55.112Z,100763.47
2023-03-29T03:50:36.660Z,100763.71
2023-03-29T03:53:04.772Z,100765.17
2023-03-29T03:55:56.084Z,100761.49
2023-03-29T03:58:28.437Z,100766.16
2023-03-29T04:00:56.358Z,100768.45
2023-03-29T04:03:37.723Z,100771.07
2023-03-29T04:06:06.973Z,100770.77
2023-03-29T04:08:54.946Z,100777.06
2023-03-29T04:11:33.832Z,100782.11
2023-03-29T04:14:02.820Z,100783.02
2023-03-29T04:16:43.180Z,100783.59
2023-03-29T04:19:30.502Z,100789.29
2023-03-29T04:21:58.982Z,100792.66
2023-03-29T04:24:27.259Z,100789.52
2023-03-29T04:27:15.194Z,100790.95
2023-03-29T04:29:45.066Z,100790.95
2023-03-29T04:32:22.120Z,100792.55
2023-03-29T04:35:08.245Z,100788.10
2023-03-29T04:37:37.294Z,100792.06
2023-03-29T04:40:09.454Z,100789.68
2023-03-29T04:42:48.272Z,100791.52
2023-03-29T04:45:19.515Z,100790.27
2023-03-29T04:48:08.554Z,100789.45
2023-03-29T04:50:37.708Z,100787.54
2023-03-29T04:53:06.274Z,100789.92
2023-03-29T04:55:34.470Z,100788.61
2023-03-29T04:58:03.349Z,100792.04
2023-03-29T05:00:35.185Z,100789.52
2023-03-29T05:03:07.654Z,100793.69
2023-03-29T05:05:38.701Z,100793.08
2023-03-29T05:08:09.741Z,100797.20
2023-03-29T05:11:02.195Z,100796.76
2023-03-29T05:13:30.456Z,100797.19
2023-03-29T05:16:00.758Z,100795.14
2023-03-29T05:18:30.042Z,100798.57
2023-03-29T05:20:58.833Z,100795.42
2023-03-29T05:23:28.916Z,100801.30
2023-03-29T05:26:20.407Z,100801.79
2023-03-29T05:28:51.762Z,100798.56
2023-03-29T05:31:20.227Z,100798.51
2023-03-29T05:33:52.103Z,100802.46
2023-03-29T05:36:21.665Z,100803.92
2023-03-29T05:38:51.205Z,100804.27
2023-03-29T05:41:20.432Z,100804.44
2023-03-29T05:44:07.604Z,100805.48
2023-03-29T05:46:36.229Z,100809.85
2023-03-29T05:49:04.584Z,100808.77
2023-03-29T05:51:52.232Z,100808.02
2023-03-29T05:54:20.288Z,100809.63
2023-03-29T05:56:48.534Z,100810.73
2023-03-29T05:59:18.399Z,100808.27
2023-03-29T06:01:47.587Z,100810.75
2023-03-29T06:04:19.227Z,100812.39
2023-03-29T06:07:02.450Z,100816.16
2023-03-29T06:09:32.376Z,100816.78
2023-03-29T06:12:04.242Z,100811.52
2023-03-29T06:14:32.855Z,100815.39
2023-03-29T06:17:15.975Z,100816.95
2023-03-29T06:19:44.957Z,100818.45
2023-03-29T06:22:14.886Z,100812.54
2023-03-29T06:24:43.735Z,100816.52
2023-03-29T06:27:18.285Z,100815.81
2023-03-29T06:29:48.280Z,100817.81
2023-03-29T06:32:17.157Z,100814.77
2023-03-29T06:34:51.472Z,100816.81
2023-03-29T06:37:44.470Z,100821.74
2023-03-29T06:40:19.279Z,100821.67
2023-03-29T06:42:48.867Z,100822.40
2023-03-29T06:45:38.974Z,100824.62
2023-03-29T06:48:12.445Z,100829.02
2023-03-29T06:50:42.088Z,100829.52
2023-03-29T06:53:11.738Z,100829.15
2023-03-29T06:55:41.375Z,100834.04
2023-03-29T06:58:24.015Z,100834.72
2023-03-29T07:00:53.908Z,100836.38
2023-03-29T07:03:31.619Z,100833.66
2023-03-29T07:06:04.003Z,100832.61
2023-03-29T07:08:35.059Z,100831.70
2023-03-29T07:11:07.179Z,100835.96
2023-03-29T07:13:49.234Z,100834.23
2023-03-29T07:16:19.735Z,100826.02
2023-03-29T07:18:58.718Z,100824.30
2023-03-29T07:21:50.455Z,100822.45
2023-03-29T07:24:20.245Z,100826.86
2023-03-29T07:27:03.433Z,100825.11
2023-03-29T07:29:32.674Z,100820.80
2023-03-29T07:32:01.010Z,100820.96
2023-03-29T07:34:51.649Z,100821.98
2023-03-29T07:37:32.930Z,100823.99
2023-03-29T07:40:04.063Z,100824.27
2023-03-29T07:42:47.940Z,100826.99
2023-03-29T07:45:26.879Z,100829.52
2023-03-29T07:48:01.267Z,100826.00
2023-03-29T07:50:39.041Z,100824.57
2023-03-29T07:53:07.359Z,100823.45
2023-03-29T07:55:35.661Z,100824.92
2023-03-29T07:58:12.411Z,100822.46
2023-03-29T08:00:41.423Z,100820.83
2023-03-29T08:03:28.865Z,100816.34
2023-03-29T08:05:56.963Z,100819.50
2023-03-29T08:08:25.270Z,100818.92
2023-03-29T08:10:57.952Z,100813.41
2023-03-29T08:13:42.094Z,100813.54
2023-03-29T08:16:42.197Z,100814.14
2023-03-29T08:19:14.232Z,100812.83
2023-03-29T08:21:51.735Z,100805.73
2023-03-29T08:24:21.077Z,100806.98
2023-03-29T08:26:54.380Z,100799.55
2023-03-29T08:29:22.475Z,100803.04
2023-03-29T08:31:50.394Z,100801.73
2023-03-29T08:34:18.611Z,100798.41
2023-03-29T08:37:05.327Z,100796.42
2023-03-29T08:39:41.208Z,100793.61
2023-03-29T08:43:02.092Z,100790.10
2023-03-29T08:46:09.261Z,100792.39
2023-03-29T08:48:46.027Z,100792.09
2023-03-29T08:51:23.729Z,100791.79
2023-03-29T08:54:10.680Z,100791.33
2023-03-29T08:57:17.106Z,100791.38
2023-03-29T08:59:52.400Z,100792.59
2023-03-29T09:02:26.353Z,100794.15
2023-03-29T09:05:07.764Z,100788.36
2023-03-29T09:07:53.415Z,100791.48
2023-03-29T09:10:39.693Z,100787.24
2023-03-29T09:13:22.932Z,100783.33
2023-03-29T09:15:57.066Z,100787.65
2023-03-29T09:18:47.857Z,100778.48
2023-03-29T09:21:49.488Z,100783.30
2023-03-29T09:24:37.559Z,100779.74
2023-03-29T09:27:32.489Z,100773.62
2023-03-29T09:30:17.044Z,100775.54
2023-03-29T09:33:10.694Z,100778.48
2023-03-29T09:36:01.513Z,100779.02
2023-03-29T09:38:32.107Z,100766.21
2023-03-29T09:41:21.374Z,100773.23
2023-03-29T09:43:51.984Z,100770.88
2023-03-29T09:46:28.360Z,100764.05
2023-03-29T09:48:57.241Z,100756.02
2023-03-29T09:51:30.051Z,100750.58
2023-03-29T09:54:00.223Z,100746.98
2023-03-29T09:56:46.699Z,100756.77
2023-03-29T09:59:17.593Z,100747.02
2023-03-29T10:01:45.893Z,100750.10
2023-03-29T10:04:15.584Z,100752.00
2023-03-29T10:06:50.400Z,100748.41
2023-03-29T10:09:24.381Z,100742.08
2023-03-29T10:12:02.280Z,100737.81
2023-03-29T10:14:35.695Z,100738.50
2023-03-29T10:17:11.700Z,100735.94
2023-03-29T10:19:49.053Z,100739.52
2023-03-29T10:22:23.194Z,100734.06
2023-03-29T10:24:53.842Z,100738.86
2023-03-29T10:27:27.971Z,100739.02
2023-03-29T10:29:58.505Z,100741.09
2023-03-29T10:32:38.542Z,100741.08
2023-03-29T10:35:29.595Z,100739.54
2023-03-29T10:37:59.510Z,100736.13
2023-03-29T10:40:29.033Z,100736.27
2023-03-29T10:43:11.383Z,100733.02
2023-03-29T10:45:40.106Z,100732.67
2023-03-29T10:48:16.108Z,100737.98
2023-03-29T10:50:49.852Z,100731.11
2023-03-29T10:53:26.284Z,100729.05
2023-03-29T10:56:07.805Z,100732.29
2023-03-29T10:58:44.830Z,100726.29
2023-03-29T11:01:21.822Z,100731.06
2023-03-29T11:04:08.081Z,100737.06
2023-03-29T11:06:52.646Z,100733.83
2023-03-29T11:09:39.430Z,100727.13
2023-03-29T11:12:24.190Z,100720.45
2023-03-29T11:15:04.735Z,100711.16
2023-03-29T11:17:42.960Z,100709.95
2023-03-29T11:20:22.422Z,100715.60
2023-03-29T11:23:19.504Z,100711.30
2023-03-29T11:26:09.814Z,100704.60
2023-03-29T11:29:02.711Z,100704.59
2023-03-29T11:31:40.956Z,100703.89
2023-03-29T11:34:26.897Z,100695.48
2023-03-29T11:37:07.763Z,100691.36
2023-03-29T11:39:41.788Z,100688.76
2023-03-29T11:42:21.501Z,100687.70
2023-03-29T11:44:55.028Z,100676.20
2023-03-29T11:47:29.068Z,100679.95
2023-03-29T11:50:06.551Z,100679.92
2023-03-29T11:52:40.900Z,100671.67
2023-03-29T11:55:15.380Z,100665.32
2023-03-29T11:58:00.050Z,100665.63
2023-03-29T12:00:35.444Z,100668.17
2023-03-29T12:03:22.257Z,100662.63
2023-03-29T12:05:56.814Z,100656.58
2023-03-29T12:08:31.311Z,100655.70
2023-03-29T12:11:09.274Z,100653.24
2023-03-29T12:13:43.910Z,100648.56
2023-03-29T12:16:27.890Z,100650.95
2023-03-29T12:18:59.006Z,100641.84
2023-03-29T12:21:29.821Z,100639.39
2023-03-29T12:23:59.368Z,100634.75
2023-03-29T12:26:56.926Z,100628.52
2023-03-29T12:29:44.820Z,100631.74
2023-03-29T12:32:47.112Z,100631.01
2023-03-29T12:36:03.265Z,100625.61
2023-03-29T12:38:52.799Z,100625.74
2023-03-29T12:41:41.750Z,100625.67
2023-03-29T12:44:28.842Z,100630.05
2023-03-29T12:47:02.280Z,100630.52
2023-03-29T12:49:34.539Z,100629.29
2023-03-29T12:52:22.110Z,100620.52
2023-03-29T12:55:00.782Z,100617.27
2023-03-29T13:02:00.847Z,100615.27
2023-03-29T13:04:49.950Z,100613.29
2023-03-29T13:07:28.110Z,100616.64
2023-03-29T13:09:58.824Z,100613.56
2023-03-29T13:12:44.728Z,100613.91
2023-03-29T13:15:36.951Z,100609.95
2023-03-29T13:18:36.928Z,100615.06
2023-03-29T13:21:34.904Z,100616.23
2023-03-29T13:24:46.971Z,100607.34
2023-03-29T13:27:30.934Z,100604.04
2023-03-29T13:30:25.154Z,100595.30
2023-03-29T13:37:37.470Z,100588.51
2023-03-29T13:40:34.961Z,100592.41
2023-03-29T13:43:21.256Z,100593.27
2023-03-29T13:46:22.971Z,100590.34
2023-03-29T13:49:00.965Z,100584.33
2023-03-29T13:51:40.526Z,100581.06
2023-03-29T13:54:39.974Z,100583.59
2023-03-29T13:57:33.003Z,100582.86
2023-03-29T14:04:24.986Z,100574.07
2023-03-29T14:06:57.969Z,100577.84
2023-03-29T14:09:33.012Z,100574.88
2023-03-29T14:12:05.973Z,100573.85
2023-03-29T14:14:45.290Z,100570.45
2023-03-29T14:24:55.018Z,100558.65
2023-03-29T14:27:23.080Z,100558.53
2023-03-29T14:29:52.584Z,100559.59
2023-03-29T14:32:29.570Z,100558.58
2023-03-29T14:34:58.248Z,100556.02
2023-03-29T14:37:28.718Z,100555.42
2023-03-29T14:39:58.996Z,100556.91
2023-03-29T14:42:29.222Z,100556.95
2023-03-29T14:45:04.271Z,100556.67
2023-03-29T14:47:34.000Z,100554.66
2023-03-29T14:50:04.052Z,100552.92
2023-03-29T14:52:32.544Z,100549.98
2023-03-29T14:55:02.420Z,100551.84
2023-03-29T14:57:36.730Z,100552.88
2023-03-29T15:00:22.233Z,100552.34
2023-03-29T15:02:55.499Z,100550.96
2023-03-29T15:05:37.832Z,100547.33
2023-03-29T15:08:10.102Z,100548.85
2023-03-29T15:10:39.039Z,100549.67
2023-03-29T15:13:08.636Z,100541.75
2023-03-29T15:15:39.195Z,100543.29
2023-03-29T15:18:10.160Z,100539.13
2023-03-29T15:20:40.498Z,100538.78
2023-03-29T15:23:14.744Z,100540.34
2023-03-29T15:25:58.894Z,100535.90
2023-03-29T15:28:35.053Z,100544.88
2023-03-29T15:31:10.987Z,100538.90
2023-03-29T15:33:41.787Z,100536.85
2023-03-29T15:36:12.568Z,100532.38
2023-03-29T15:38:45.100Z,100535.27
2023-03-29T15:41:14.805Z,100534.55
2023-03-29T15:43:43.488Z,100535.19
2023-03-29T15:46:14.074Z,100530.63
2023-03-29T15:48:42.666Z,100529.61
2023-03-29T15:51:15.242Z,100526.20
2023-03-29T15:53:43.210Z,100526.98
2023-03-29T15:56:18.312Z,100525.87
2023-03-29T15:58:47.851Z,100527.87
2023-03-29T16:01:36.705Z,100524.55
2023-03-29T16:04:14.127Z,100524.73
2023-03-29T16:06:43.816Z,100519.11
2023-03-29T16:09:14.691Z,100520.71
2023-03-29T16:11:45.455Z,100514.92
2023-03-29T16:14:30.030Z,100513.32
2023-03-29T16:17:00.163Z,100518.75
2023-03-29T16:19:31.239Z,100518.52
2023-03-29T16:22:02.490Z,100517.73
2023-03-29T16:24:32.273Z,100515.59
2023-03-29T16:27:01.655Z,100514.27
2023-03-29T16:29:30.536Z,100509.54
2023-03-29T16:31:58.785Z,100511.89
2023-03-29T16:34:26.928Z,100508.20
2023-03-29T16:36:55.076Z,100508.67
2023-03-29T16:39:23.146Z,100506.20
2023-03-29T16:41:51.409Z,100502.88
2023-03-29T16:44:23.609Z,100500.23
2023-03-29T16:46:58.064Z,100492.23
2023-03-29T16:49:26.384Z,100490.93
2023-03-29T16:51:54.596Z,100489.61
2023-03-29T16:54:25.968Z,100492.75
2023-03-29T16:56:54.285Z,100493.35
2023-03-29T16:59:22.476Z,100490.17
2023-03-29T17:01:50.850Z,100487.32
2023-03-29T17:04:19.111Z,100491.02
2023-03-29T17:06:47.509Z,100485.23
2023-03-29T17:09:17.012Z,100484.66
2023-03-29T17:11:45.764Z,100482.84
2023-03-29T17:14:14.161Z,100487.34
2023-03-29T17:16:42.338Z,100489.10
2023-03-29T17:19:10.496Z,100488.82
2023-03-29T17:21:38.596Z,100487.14
2023-03-29T17:24:07.260Z,100487.71
2023-03-29T17:26:36.208Z,100487.77
2023-03-29T17:29:05.385Z,100488.85
2023-03-29T17:31:36.855Z,100489.75
2023-03-29T17:34:04.781Z,100491.69
2023-03-29T17:36:33.927Z,100494.28
2023-03-29T17:39:02.869Z,100494.33
2023-03-29T17:41:31.323Z,100494.17
2023-03-29T17:43:59.833Z,100498.84
2023-03-29T17:46:28.443Z,100498.17
2023-03-29T17:48:59.330Z,100501.27
2023-03-29T17:51:28.217Z,100502.66
2023-03-29T17:53:57.328Z,100503.03
2023-03-29T17:56:26.749Z,100500.83
2023-03-29T17:58:56.326Z,100506.67
2023-03-29T18:01:24.455Z,100507.20
2023-03-29T18:03:52.602Z,100509.28
2023-03-29T18:06:21.187Z,100508.95
2023-03-29T18:08:49.431Z,100508.98
2023-03-29T18:11:22.617Z,100510.88
2023-03-29T18:13:51.885Z,100516.04
2023-03-29T18:16:23.566Z,100518.61
2023-03-29T18:18:52.098Z,100516.74
2023-03-29T18:21:20.262Z,100518.30
2023-03-29T18:23:50.140Z,100518.83
2023-03-29T18:26:18.434Z,100513.35
2023-03-29T18:28:47.470Z,100508.06
2023-03-29T18:31:16.301Z,100508.73
2023-03-29T18:33:44.698Z,100507.39
2023-03-29T18:36:13.884Z,100502.94
2023-03-29T18:38:44.077Z,100499.36
2023-03-29T18:41:14.078Z,100494.41
2023-03-29T18:43:43.471Z,100498.17
2023-03-29T18:46:11.549Z,100495.77
2023-03-29T18:48:40.079Z,100491.31
2023-03-29T18:51:10.366Z,100493.03
2023-03-29T18:53:41.611Z,100497.33
2023-03-29T18:56:09.722Z,100497.49
2023-03-29T18:58:37.717Z,100501.42
2023-03-29T19:01:07.100Z,100504.52
2023-03-29T19:03:35.870Z,100507.95
2023-03-29T19:06:04.909Z,100505.38
2023-03-29T19:08:34.486Z,100506.23
2023-03-29T19:11:04.912Z,100504.54
2023-03-29T19:13:33.994Z,100500.61
2023-03-29T19:16:03.048Z,100505.73
2023-03-29T19:18:31.690Z,100503.34
2023-03-29T19:20:59.891Z,100508.12
2023-03-29T19:23:28.541Z,100508.13
2023-03-29T19:26:00.296Z,100507.11
2023-03-29T19:28:29.500Z,100503.34
2023-03-29T19:30:59.990Z,100502.65
2023-03-29T19:33:29.531Z,100507.95
2023-03-29T19:35:57.849Z,100504.53
2023-03-29T19:38:41.549Z,100504.37
2023-03-29T19:41:11.682Z,100502.30
2023-03-29T19:43:39.736Z,100502.83
2023-03-29T19:46:10.984Z,100504.36
2023-03-29T19:48:39.940Z,100506.77
2023-03-29T19:51:09.077Z,100497.88
2023-03-29T19:53:38.688Z,100495.99
2023-03-29T19:56:10.974Z,100496.85
2023-03-29T19:58:39.430Z,100491.20
2023-03-29T20:01:07.581Z,100486.41
2023-03-29T20:03:36.305Z,100485.05
2023-03-29T20:06:04.858Z,100485.55
2023-03-29T20:08:33.202Z,100477.88
2023-03-29T20:11:07.375Z,100479.08
2023-03-29T20:13:38.908Z,100477.52
2023-03-29T20:16:10.664Z,100476.67
2023-03-29T20:18:39.561Z,100469.66
2023-03-29T20:21:09.460Z,100465.89
2023-03-29T20:23:38.044Z,100464.36
2023-03-29T20:26:07.473Z,100461.29
2023-03-29T20:28:38.016Z,100458.71
2023-03-29T20:31:10.657Z,100453.23
2023-03-29T20:33:39.537Z,100450.51
2023-03-29T20:36:08.832Z,100450.34
2023-03-29T20:38:37.762Z,100444.53
2023-03-29T20:41:09.570Z,100436.50
2023-03-29T20:43:38.048Z,100429.14
2023-03-29T20:46:14.802Z,100426.07
2023-03-29T20:48:53.012Z,100422.65
2023-03-29T20:51:22.782Z,100420.08
2023-03-29T20:53:50.945Z,100418.54
2023-03-29T20:56:19.473Z,100418.71
2023-03-29T20:58:47.727Z,100418.87
2023-03-29T21:01:15.803Z,100420.90
2023-03-29T21:03:43.934Z,100417.82
2023-03-29T21:06:14.498Z,100413.36
2023-03-29T21:08:46.062Z,100418.83
2023-03-29T21:11:15.534Z,100417.44
2023-03-29T21:13:44.281Z,100417.08
2023-03-29T21:16:13.360Z,100416.70
2023-03-29T21:18:41.890Z,100416.17
2023-03-29T21:21:12.112Z,100411.02
2023-03-29T21:23:40.216Z,100413.91
2023-03-29T21:26:08.911Z,100411.16
2023-03-29T21:28:37.877Z,100411.13
2023-03-29T21:31:06.841Z,100413.85
2023-03-29T21:33:36.404Z,100411.27
2023-03-29T21:36:05.190Z,100413.82
2023-03-29T21:38:33.234Z,100418.77
2023-03-29T21:41:02.722Z,100412.30
2023-03-29T21:43:31.220Z,100407.52
2023-03-29T21:45:59.479Z,100404.63
2023-03-29T21:48:27.564Z,100406.34
2023-03-29T21:50:55.493Z,100402.08
2023-03-29T21:53:24.790Z,100403.77
2023-03-29T21:55:52.994Z,100404.45
2023-03-29T21:58:21.474Z,100405.66
2023-03-29T22:00:49.557Z,100403.27
2023-03-29T22:03:17.716Z,100400.38
2023-03-29T22:05:56.754Z,100396.44
2023-03-29T22:08:26.554Z,100394.73
2023-03-29T22:10:57.060Z,100391.34
2023-03-29T22:13:27.444Z,100387.42
2023-03-29T22:16:00.448Z,100387.94
2023-03-29T22:18:30.310Z,100386.77
2023-03-29T22:20:58.202Z,100388.48
2023-03-29T22:23:26.261Z,100391.38
2023-03-29T22:25:54.233Z,100387.65
2023-03-29T22:28:22.636Z,100388.66
2023-03-29T22:30:50.572Z,100379.11
2023-03-29T22:33:18.532Z,100374.83
2023-03-29T22:35:46.678Z,100375.02
2023-03-29T22:38:14.671Z,100379.80
2023-03-29T22:40:42.641Z,100382.21
2023-03-29T22:43:10.645Z,100377.60
2023-03-29T22:45:38.818Z,100376.05
2023-03-29T22:48:06.864Z,100370.96
2023-03-29T22:50:34.872Z,100371.81
2023-03-29T22:53:02.906Z,100365.66
2023-03-29T22:55:30.871Z,100358.67
2023-03-29T22:57:59.086Z,100353.05
2023-03-29T23:00:27.308Z,100350.14
2023-03-29T23:02:55.429Z,100346.90
2023-03-29T23:05:23.512Z,100349.14
2023-03-29T23:07:51.626Z,100347.60
2023-03-29T23:10:19.901Z,100348.63
2023-03-29T23:12:49.821Z,100347.10
2023-03-29T23:15:17.899Z,100347.45
2023-03-29T23:17:45.876Z,100351.20
2023-03-29T23:20:14.129Z,100352.07
2023-03-29T23:22:42.098Z,100349.84
2023-03-29T23:25:10.285Z,100353.94
2023-03-29T23:27:38.450Z,100348.31
2023-03-29T23:30:08.268Z,100344.90
2023-03-29T23:32:36.257Z,100339.77
2023-03-29T23:35:04.715Z,100335.67
2023-03-29T23:37:32.878Z,100330.20
2023-03-29T23:40:00.857Z,100325.59
2023-03-29T23:42:29.535Z,100322.00
2023-03-29T23:44:58.119Z,100321.33
2023-03-29T23:47:27.146Z,100322.86
2023-03-29T23:49:55.183Z,100324.23
2023-03-29T23:52:23.456Z,100321.99
2023-03-29T23:54:51.431Z,100319.27
2023-03-29T23:57:20.341Z,100315.52
2023-03-29T23:59:52.783Z,100312.27
